Time;durP1;ratioP1;P1;durP2;ratioP2;P2;SDS_P1;SDS_P2;PMS_P1;PMS_P2;Temp;Humidity;BMP_temperature;BMP_pressure;BME280_temperature;BME280_humidity;BME280_pressure;Samples;Min_cycle;Max_cycle;Signal;HPM_P1;HPM_P2
2022/08/17 00:00:41;;;;;;;21.10;16.55;;;;;;;;;;5075036;28;20021;-74
2022/08/17 00:03:11;;;;;;;26.35;18.92;;;;;;;;;;5074873;28;20089;-73
2022/08/17 00:05:48;;;;;;;25.77;18.58;;;;;;;;;;5075231;28;20021;-72
2022/08/17 00:08:15;;;;;;;30.35;17.50;;;;;;;;;;5075378;28;20542;-72
2022/08/17 00:10:42;;;;;;;25.48;18.55;;;;;;;;;;5075405;28;20393;-73
2022/08/17 00:13:10;;;;;;;26.98;19.45;;;;;;;;;;5075010;28;20025;-74
2022/08/17 00:15:36;;;;;;;26.35;18.70;;;;;;;;;;5074541;28;20116;-72
2022/08/17 00:18:02;;;;;;;27.33;18.38;;;;;;;;;;5074574;28;20021;-72
2022/08/17 00:20:28;;;;;;;24.75;19.13;;;;;;;;;;5074640;28;20115;-72
2022/08/17 00:23:11;;;;;;;28.85;19.30;;;;;;;;;;5056471;28;20031;-73
2022/08/17 00:25:37;;;;;;;27.20;18.52;;;;;;;;;;5074137;28;20028;-73
2022/08/17 00:28:04;;;;;;;24.50;19.20;;;;;;;;;;5074457;28;20093;-72
2022/08/17 00:30:30;;;;;;;29.58;20.35;;;;;;;;;;5074354;28;20033;-74
2022/08/17 00:32:57;;;;;;;27.90;18.02;;;;;;;;;;5074430;28;20154;-74
2022/08/17 00:35:26;;;;;;;26.50;18.13;;;;;;;;;;5073950;28;20503;-74
2022/08/17 00:37:52;;;;;;;23.58;18.33;;;;;;;;;;5074291;28;20469;-74
2022/08/17 00:40:19;;;;;;;27.50;20.17;;;;;;;;;;5074301;28;20032;-75
2022/08/17 00:42:45;;;;;;;31.15;20.48;;;;;;;;;;5074424;28;20032;-73
2022/08/17 00:45:13;;;;;;;27.25;19.17;;;;;;;;;;5073595;28;20462;-73
2022/08/17 00:47:39;;;;;;;29.05;20.27;;;;;;;;;;5073930;28;20103;-74
2022/08/17 00:50:06;;;;;;;24.90;19.25;;;;;;;;;;5074225;28;20032;-74
2022/08/17 00:52:36;;;;;;;28.05;20.25;;;;;;;;;;5074376;28;20439;-74
2022/08/17 00:55:04;;;;;;;27.75;21.25;;;;;;;;;;5074252;28;20025;-73
2022/08/17 00:57:37;;;;;;;34.05;22.02;;;;;;;;;;5074683;28;20389;-74
2022/08/17 01:00:09;;;;;;;34.67;21.27;;;;;;;;;;5075317;28;20033;-75
2022/08/17 01:02:41;;;;;;;30.83;22.23;;;;;;;;;;5073459;28;20027;-74
2022/08/17 01:05:08;;;;;;;30.85;21.38;;;;;;;;;;5073759;28;20103;-74
2022/08/17 01:07:34;;;;;;;25.88;19.45;;;;;;;;;;5073343;28;20123;-75
2022/08/17 01:10:03;;;;;;;34.85;22.67;;;;;;;;;;5073527;28;20104;-74
2022/08/17 01:12:30;;;;;;;30.65;20.05;;;;;;;;;;5073765;28;20077;-74
2022/08/17 01:14:56;;;;;;;30.98;21.08;;;;;;;;;;5075582;28;20016;-74
2022/08/17 01:17:22;;;;;;;26.73;20.10;;;;;;;;;;5073145;28;20039;-74
2022/08/17 01:19:48;;;;;;;37.95;20.27;;;;;;;;;;5073453;28;20036;-74
2022/08/17 01:22:15;;;;;;;24.92;18.33;;;;;;;;;;5073417;28;20029;-75
2022/08/17 01:24:42;;;;;;;25.10;19.88;;;;;;;;;;5073348;28;20028;-74
2022/08/17 01:27:09;;;;;;;26.48;20.38;;;;;;;;;;5073095;28;20032;-73
2022/08/17 01:29:37;;;;;;;24.52;17.60;;;;;;;;;;5073256;28;20028;-74
2022/08/17 01:32:04;;;;;;;28.33;19.45;;;;;;;;;;5073217;28;20028;-74
2022/08/17 01:34:30;;;;;;;27.13;19.33;;;;;;;;;;5073084;28;20060;-73
2022/08/17 01:36:57;;;;;;;28.38;20.35;;;;;;;;;;5073151;28;20040;-73
2022/08/17 01:39:34;;;;;;;30.30;19.40;;;;;;;;;;5073170;28;20025;-74
2022/08/17 01:42:10;;;;;;;27.73;20.20;;;;;;;;;;5072927;28;20040;-74
2022/08/17 01:44:37;;;;;;;26.45;18.98;;;;;;;;;;5072716;28;20021;-74
2022/08/17 01:47:03;;;;;;;26.05;18.40;;;;;;;;;;5072602;28;20131;-74
2022/08/17 01:49:29;;;;;;;25.55;18.58;;;;;;;;;;5054642;28;20115;-74
2022/08/17 01:51:55;;;;;;;22.48;18.75;;;;;;;;;;5072504;28;20028;-74
2022/08/17 01:54:22;;;;;;;26.35;20.77;;;;;;;;;;5072995;28;20051;-73
2022/08/17 01:56:49;;;;;;;31.23;21.33;;;;;;;;;;5072446;28;20033;-74
2022/08/17 01:59:17;;;;;;;29.70;20.60;;;;;;;;;;5071820;28;20035;-74
2022/08/17 02:01:43;;;;;;;32.38;19.33;;;;;;;;;;5072542;28;20032;-74
2022/08/17 02:04:10;;;;;;;25.77;19.48;;;;;;;;;;5072577;28;20082;-74
2022/08/17 02:06:38;;;;;;;25.15;18.90;;;;;;;;;;5072432;28;20032;-74
2022/08/17 02:09:04;;;;;;;27.27;20.13;;;;;;;;;;5072590;28;20491;-74
2022/08/17 02:11:32;;;;;;;25.83;18.65;;;;;;;;;;5072470;28;20047;-74
2022/08/17 02:13:59;;;;;;;26.77;19.88;;;;;;;;;;5072612;28;20025;-74
2022/08/17 02:16:24;;;;;;;29.10;20.85;;;;;;;;;;5072639;28;20029;-74
2022/08/17 02:18:51;;;;;;;25.98;19.58;;;;;;;;;;5072556;28;20266;-74
2022/08/17 02:21:16;;;;;;;33.35;22.13;;;;;;;;;;5072102;28;20059;-74
2022/08/17 02:23:46;;;;;;;28.88;21.15;;;;;;;;;;5072024;28;20056;-73
2022/08/17 02:26:12;;;;;;;33.78;23.25;;;;;;;;;;5071921;28;20020;-74
2022/08/17 02:28:38;;;;;;;34.45;22.20;;;;;;;;;;5072753;28;20074;-74
2022/08/17 02:31:05;;;;;;;30.35;23.17;;;;;;;;;;5054061;28;20028;-75
2022/08/17 02:33:32;;;;;;;33.38;21.58;;;;;;;;;;5042004;28;20513;-74
2022/08/17 02:35:58;;;;;;;32.15;22.58;;;;;;;;;;5051410;28;20103;-73
2022/08/17 02:38:24;;;;;;;33.38;23.48;;;;;;;;;;5051810;28;20467;-73
2022/08/17 02:40:50;;;;;;;32.47;23.08;;;;;;;;;;5033900;28;20086;-74
2022/08/17 02:43:16;;;;;;;30.88;22.05;;;;;;;;;;5052586;28;20021;-73
2022/08/17 02:45:42;;;;;;;27.80;22.13;;;;;;;;;;5051755;28;20092;-73
2022/08/17 02:48:09;;;;;;;39.20;22.60;;;;;;;;;;5052016;28;20048;-75
2022/08/17 02:50:34;;;;;;;30.35;22.65;;;;;;;;;;5052169;28;20024;-74
2022/08/17 02:53:00;;;;;;;29.52;24.05;;;;;;;;;;5052130;28;20508;-74
2022/08/17 02:55:28;;;;;;;36.15;24.13;;;;;;;;;;5051970;28;20040;-75
2022/08/17 02:57:55;;;;;;;34.67;22.58;;;;;;;;;;5052549;28;20028;-75
2022/08/17 03:00:23;;;;;;;31.25;22.02;;;;;;;;;;5052216;28;20554;-74
2022/08/17 03:02:49;;;;;;;34.90;21.83;;;;;;;;;;5052687;28;20100;-75
2022/08/17 03:05:16;;;;;;;30.52;23.58;;;;;;;;;;5052876;28;20386;-74
2022/08/17 03:07:42;;;;;;;30.50;21.83;;;;;;;;;;5057748;28;20021;-74
2022/08/17 03:10:08;;;;;;;35.83;25.02;;;;;;;;;;5062852;28;20052;-74
2022/08/17 03:12:37;;;;;;;35.72;25.83;;;;;;;;;;5063405;28;20096;-74
2022/08/17 03:15:04;;;;;;;33.35;25.25;;;;;;;;;;5063708;28;20032;-73
2022/08/17 03:17:30;;;;;;;37.05;27.25;;;;;;;;;;5062981;28;20025;-73
2022/08/17 03:19:57;;;;;;;39.22;27.52;;;;;;;;;;5063903;28;20055;-73
2022/08/17 03:22:23;;;;;;;41.28;28.08;;;;;;;;;;5064022;28;20016;-73
2022/08/17 03:24:49;;;;;;;39.90;27.00;;;;;;;;;;5063349;28;20084;-73
2022/08/17 03:27:15;;;;;;;37.42;26.52;;;;;;;;;;5062350;28;20100;-72
2022/08/17 03:29:41;;;;;;;35.53;25.85;;;;;;;;;;5062268;28;20025;-75
2022/08/17 03:32:11;;;;;;;35.70;27.08;;;;;;;;;;5059568;28;20021;-75
2022/08/17 03:34:37;;;;;;;36.35;27.25;;;;;;;;;;5060399;28;20032;-75
2022/08/17 03:37:03;;;;;;;34.88;27.15;;;;;;;;;;5040065;28;20086;-75
2022/08/17 03:39:29;;;;;;;35.28;26.38;;;;;;;;;;5059743;28;20487;-72
2022/08/17 03:42:01;;;;;;;36.05;26.75;;;;;;;;;;5066990;28;20112;-74
2022/08/17 03:44:27;;;;;;;33.22;24.35;;;;;;;;;;5065592;28;20060;-73
2022/08/17 03:57:52;;;;;;;34.38;23.83;;;;;;;;;;5059325;28;20513;-75
2022/08/17 04:00:18;;;;;;;29.63;23.58;;;;;;;;;;5057936;28;20029;-75
2022/08/17 04:02:45;;;;;;;34.65;24.60;;;;;;;;;;5058041;28;20013;-75
2022/08/17 04:05:11;;;;;;;32.40;24.00;;;;;;;;;;5057749;28;20100;-75
2022/08/17 04:07:37;;;;;;;30.65;24.00;;;;;;;;;;5039974;28;20032;-75
2022/08/17 04:10:03;;;;;;;34.25;26.05;;;;;;;;;;5058942;28;20029;-75
2022/08/17 04:12:41;;;;;;;32.95;24.98;;;;;;;;;;5058308;28;20390;-75
2022/08/17 04:15:07;;;;;;;31.35;24.85;;;;;;;;;;5057801;28;20025;-75
2022/08/17 04:17:33;;;;;;;36.83;26.73;;;;;;;;;;5057629;28;20401;-74
2022/08/17 04:19:59;;;;;;;35.63;25.48;;;;;;;;;;5053422;28;20108;-74
2022/08/17 04:22:26;;;;;;;32.50;24.17;;;;;;;;;;5054494;28;20024;-74
2022/08/17 04:24:52;;;;;;;32.85;24.75;;;;;;;;;;5054414;28;20025;-75
2022/08/17 04:27:18;;;;;;;49.22;29.17;;;;;;;;;;5054675;28;20205;-76
2022/08/17 04:29:44;;;;;;;32.55;25.27;;;;;;;;;;5036600;28;20075;-75
2022/08/17 04:32:10;;;;;;;31.25;21.88;;;;;;;;;;5054342;28;20433;-77
2022/08/17 04:34:36;;;;;;;30.50;22.38;;;;;;;;;;5056413;28;20166;-77
2022/08/17 04:37:02;;;;;;;28.13;21.20;;;;;;;;;;5091426;22;20052;-77
2022/08/17 04:39:28;;;;;;;27.98;21.25;;;;;;;;;;5074090;28;20029;-77
2022/08/17 04:42:06;;;;;;;27.80;21.42;;;;;;;;;;5059254;28;20029;-77
2022/08/17 04:44:33;;;;;;;27.95;21.05;;;;;;;;;;5063263;28;20029;-77
2022/08/17 04:46:59;;;;;;;26.30;21.70;;;;;;;;;;5045421;28;20021;-79
2022/08/17 04:49:25;;;;;;;27.42;21.35;;;;;;;;;;5037280;28;20049;-81
2022/08/17 04:51:51;;;;;;;31.45;23.35;;;;;;;;;;5020356;28;20032;-81
2022/08/17 04:54:19;;;;;;;38.75;25.65;;;;;;;;;;5041308;28;20037;-78
2022/08/17 04:56:45;;;;;;;37.08;23.83;;;;;;;;;;5038917;28;20048;-78
2022/08/17 04:59:14;;;;;;;33.15;23.40;;;;;;;;;;5038667;28;20036;-77
2022/08/17 05:01:42;;;;;;;36.17;26.98;;;;;;;;;;5042073;28;20017;-80
2022/08/17 05:04:10;;;;;;;41.13;27.13;;;;;;;;;;5043249;28;20071;-78
2022/08/17 05:06:36;;;;;;;40.45;27.92;;;;;;;;;;5040935;28;20026;-77
2022/08/17 05:09:02;;;;;;;38.47;28.45;;;;;;;;;;5024326;28;20033;-79
2022/08/17 05:11:28;;;;;;;41.28;28.55;;;;;;;;;;5042441;28;20401;-78
2022/08/17 05:13:55;;;;;;;46.60;31.33;;;;;;;;;;5047948;28;20029;-78
2022/08/17 05:16:22;;;;;;;37.15;29.20;;;;;;;;;;5050525;28;20033;-78
2022/08/17 05:18:48;;;;;;;38.95;28.92;;;;;;;;;;5051630;28;20025;-78
2022/08/17 05:21:14;;;;;;;42.03;29.23;;;;;;;;;;5034182;28;20101;-78
2022/08/17 05:23:40;;;;;;;36.17;27.75;;;;;;;;;;5031132;28;20045;-76
2022/08/17 05:26:06;;;;;;;43.72;33.40;;;;;;;;;;5049481;28;20021;-77
2022/08/17 05:28:32;;;;;;;46.80;33.28;;;;;;;;;;5050175;28;20029;-77
2022/08/17 05:31:00;;;;;;;42.15;33.47;;;;;;;;;;5055715;28;20069;-77
2022/08/17 05:33:27;;;;;;;45.13;30.85;;;;;;;;;;5058741;28;20035;-77
2022/08/17 05:35:56;;;;;;;42.00;32.25;;;;;;;;;;5057206;28;20029;-77
2022/08/17 05:38:23;;;;;;;40.38;30.52;;;;;;;;;;5040076;28;20048;-78
2022/08/17 05:40:49;;;;;;;46.50;34.83;;;;;;;;;;5057464;28;20049;-77
2022/08/17 05:43:20;;;;;;;43.28;33.00;;;;;;;;;;5053281;28;20037;-77
2022/08/17 05:45:45;;;;;;;42.92;30.95;;;;;;;;;;5042264;28;20029;-78
2022/08/17 05:48:12;;;;;;;44.25;31.70;;;;;;;;;;5043636;28;20021;-77
2022/08/17 05:50:58;;;;;;;52.60;36.42;;;;;;;;;;5038046;28;20018;-77
2022/08/17 05:53:30;;;;;;;42.35;30.85;;;;;;;;;;5009545;28;20041;-77
2022/08/17 05:55:59;;;;;;;46.55;33.33;;;;;;;;;;5027741;28;20029;-76
2022/08/17 05:58:38;;;;;;;42.28;30.52;;;;;;;;;;5027765;28;20420;-76
2022/08/17 06:01:23;;;;;;;45.30;32.75;;;;;;;;;;5028837;28;20030;-76
2022/08/17 06:03:59;;;;;;;42.28;30.35;;;;;;;;;;5042400;28;20482;-77
2022/08/17 06:06:25;;;;;;;44.75;32.75;;;;;;;;;;5039089;28;20035;-75
2022/08/17 06:08:56;;;;;;;48.83;32.53;;;;;;;;;;5037324;28;20021;-76
2022/08/17 06:11:28;;;;;;;37.60;29.77;;;;;;;;;;5028651;28;20129;-76
2022/08/17 06:13:57;;;;;;;46.47;30.50;;;;;;;;;;5029547;28;20470;-77
2022/08/17 06:16:25;;;;;;;43.05;31.75;;;;;;;;;;5039933;28;20045;-76
2022/08/17 06:19:06;;;;;;;45.30;31.98;;;;;;;;;;5036639;28;20079;-77
2022/08/17 06:21:37;;;;;;;38.20;29.83;;;;;;;;;;5037172;28;20025;-78
2022/08/17 06:24:26;;;;;;;43.75;31.58;;;;;;;;;;5038017;28;20017;-77
2022/08/17 06:26:53;;;;;;;83.97;57.83;;;;;;;;;;5019929;28;20026;-77
2022/08/17 06:29:23;;;;;;;51.80;34.92;;;;;;;;;;5035082;28;20031;-75
2022/08/17 06:31:49;;;;;;;43.97;30.85;;;;;;;;;;5018596;28;20116;-77
2022/08/17 06:34:15;;;;;;;41.60;29.83;;;;;;;;;;5040467;28;20104;-76
2022/08/17 06:36:47;;;;;;;48.88;32.08;;;;;;;;;;5038254;28;20398;-77
2022/08/17 06:39:19;;;;;;;39.92;27.98;;;;;;;;;;5039012;28;20081;-78
2022/08/17 06:41:54;;;;;;;39.72;27.42;;;;;;;;;;5037335;28;20029;-77
2022/08/17 06:44:23;;;;;;;41.65;28.08;;;;;;;;;;5021075;28;20029;-78
2022/08/17 06:46:55;;;;;;;41.42;27.88;;;;;;;;;;5036789;28;20021;-80
2022/08/17 06:49:24;;;;;;;40.28;27.67;;;;;;;;;;5033930;28;20048;-76
2022/08/17 06:51:57;;;;;;;40.63;28.50;;;;;;;;;;5019542;28;20052;-79
2022/08/17 06:54:31;;;;;;;34.25;24.92;;;;;;;;;;5020394;28;20030;-76
2022/08/17 06:56:58;;;;;;;;;;;;;;;;;;5040980;28;20029;-81
2022/08/17 06:59:27;;;;;;;38.42;24.55;;;;;;;;;;5041530;28;19946;-75
2022/08/17 07:01:55;;;;;;;34.45;23.77;;;;;;;;;;5040381;28;20041;-76
2022/08/17 07:04:24;;;;;;;38.10;26.60;;;;;;;;;;5042233;28;20025;-76
2022/08/17 07:06:52;;;;;;;47.08;27.35;;;;;;;;;;5039507;28;20017;-76
2022/08/17 07:09:23;;;;;;;34.65;22.75;;;;;;;;;;5036066;28;20022;-77
2022/08/17 07:11:49;;;;;;;37.28;23.92;;;;;;;;;;5037786;28;20022;-78
2022/08/17 07:14:37;;;;;;;40.63;24.48;;;;;;;;;;5024032;28;20052;-75
2022/08/17 07:17:07;;;;;;;37.28;20.52;;;;;;;;;;5041483;28;20029;-75
2022/08/17 07:19:39;;;;;;;29.92;20.85;;;;;;;;;;5041703;28;20085;-76
2022/08/17 07:22:08;;;;;;;34.83;18.35;;;;;;;;;;5039974;28;20454;-76
2022/08/17 07:24:46;;;;;;;25.55;17.60;;;;;;;;;;5036855;28;20021;-79
2022/08/17 07:27:20;;;;;;;29.50;20.27;;;;;;;;;;5035909;28;20074;-77
2022/08/17 07:29:49;;;;;;;27.42;18.73;;;;;;;;;;5020852;28;20079;-77
2022/08/17 07:32:17;;;;;;;26.20;17.52;;;;;;;;;;5039661;28;20125;-77
2022/08/17 07:35:07;;;;;;;28.73;17.80;;;;;;;;;;5020991;28;20063;-75
2022/08/17 07:37:33;;;;;;;31.00;18.83;;;;;;;;;;5040362;28;20022;-76
2022/08/17 07:40:13;;;;;;;32.08;17.02;;;;;;;;;;5040121;28;20048;-82
2022/08/17 07:42:39;;;;;;;22.95;14.98;;;;;;;;;;5036294;28;20096;-77
2022/08/17 07:48:17;;;;;;;24.70;14.27;;;;;;;;;;5042254;28;20446;-77
2022/08/17 07:50:37;;;;;;;18.30;12.75;;;;;;;;;;5046018;28;20040;-76
2022/08/17 07:53:19;;;;;;;29.58;12.95;;;;;;;;;;5048763;28;20029;-76
2022/08/17 07:55:45;;;;;;;18.13;12.68;;;;;;;;;;5047903;28;20584;-74
2022/08/17 07:58:19;;;;;;;38.03;27.00;;;;;;;;;;5047274;28;20474;-75
2022/08/17 08:00:45;;;;;;;21.75;13.63;;;;;;;;;;5026197;28;20390;-76
2022/08/17 08:03:20;;;;;;;21.23;12.73;;;;;;;;;;5020974;28;20024;-76
2022/08/17 08:05:51;;;;;;;18.52;11.10;;;;;;;;;;5040708;28;20071;-76
2022/08/17 08:08:20;;;;;;;15.80;10.30;;;;;;;;;;5038782;28;20104;-77
2022/08/17 08:10:56;;;;;;;12.10;10.32;;;;;;;;;;5038801;28;20022;-77
2022/08/17 08:13:24;;;;;;;16.30;10.88;;;;;;;;;;5021560;28;20437;-78
2022/08/17 08:15:52;;;;;;;14.13;9.80;;;;;;;;;;5051817;28;20109;-77
2022/08/17 08:18:20;;;;;;;17.27;9.68;;;;;;;;;;5054004;28;20030;-75
2022/08/17 08:20:52;;;;;;;22.85;10.05;;;;;;;;;;5040185;28;20036;-76
2022/08/17 08:23:28;;;;;;;17.38;9.63;;;;;;;;;;5040444;28;20021;-77
2022/08/17 08:25:55;;;;;;;15.65;10.25;;;;;;;;;;5036875;28;20026;-76
2022/08/17 08:28:27;;;;;;;20.20;11.00;;;;;;;;;;5035467;28;20104;-75
2022/08/17 08:30:56;;;;;;;18.52;8.85;;;;;;;;;;5017973;28;20052;-76
2022/08/17 08:33:30;;;;;;;14.20;8.48;;;;;;;;;;5035482;28;20440;-76
2022/08/17 08:35:57;;;;;;;;;;;;;;;;;;5035998;28;20033;-77
2022/08/17 08:38:33;;;;;;;18.20;10.25;;;;;;;;;;5036514;28;19943;-75
2022/08/17 08:41:18;;;;;;;17.60;9.52;;;;;;;;;;5035601;28;20097;-76
2022/08/17 08:43:45;;;;;;;;;;;;;;;;;;5036239;28;20440;-75
2022/08/17 08:46:29;;;;;;;9.95;8.32;;;;;;;;;;5038117;28;19944;-75
2022/08/17 08:49:02;;;;;;;12.30;7.55;;;;;;;;;;5042148;28;20454;-76
2022/08/17 08:51:31;;;;;;;17.05;8.65;;;;;;;;;;5036253;28;20057;-74
2022/08/17 08:54:20;;;;;;;14.38;7.78;;;;;;;;;;5037175;28;20048;-75
2022/08/17 08:56:46;;;;;;;11.43;7.63;;;;;;;;;;5039080;28;20074;-77
2022/08/17 08:59:12;;;;;;;9.85;8.15;;;;;;;;;;5036382;28;20125;-77
2022/08/17 09:01:44;;;;;;;14.00;7.13;;;;;;;;;;5039069;28;20029;-76
2022/08/17 09:04:10;;;;;;;19.58;8.32;;;;;;;;;;5039563;28;20360;-75
2022/08/17 09:06:48;;;;;;;18.63;7.97;;;;;;;;;;5046699;28;20012;-73
2022/08/17 09:09:33;;;;;;;12.60;7.63;;;;;;;;;;5039764;28;20179;-76
2022/08/17 09:12:14;;;;;;;10.90;7.60;;;;;;;;;;5038097;28;20044;-76
2022/08/17 09:14:41;;;;;;;14.02;7.72;;;;;;;;;;5038631;28;20034;-74
2022/08/17 09:17:11;;;;;;;12.98;8.05;;;;;;;;;;5038752;28;20026;-75
2022/08/17 09:19:37;;;;;;;12.93;8.00;;;;;;;;;;5039820;28;20028;-75
2022/08/17 09:22:10;;;;;;;21.85;12.25;;;;;;;;;;5036032;28;20092;-76
2022/08/17 09:24:42;;;;;;;16.90;10.18;;;;;;;;;;5037844;28;20013;-76
2022/08/17 09:27:14;;;;;;;15.90;9.15;;;;;;;;;;5036404;28;20442;-77
2022/08/17 09:29:45;;;;;;;11.38;7.30;;;;;;;;;;5036758;28;20049;-76
2022/08/17 09:32:20;;;;;;;12.73;7.57;;;;;;;;;;5039081;28;20045;-76
2022/08/17 09:34:53;;;;;;;9.75;6.93;;;;;;;;;;5037411;28;20049;-76
2022/08/17 09:37:22;;;;;;;16.52;8.48;;;;;;;;;;5035492;28;20025;-76
2022/08/17 09:40:08;;;;;;;14.43;7.90;;;;;;;;;;5039189;28;20032;-75
2022/08/17 09:42:46;;;;;;;14.93;6.82;;;;;;;;;;5034877;28;20030;-75
2022/08/17 09:45:35;;;;;;;17.60;7.22;;;;;;;;;;5037086;28;20029;-75
2022/08/17 09:48:07;;;;;;;11.13;7.03;;;;;;;;;;5038038;28;20465;-76
2022/08/17 09:50:45;;;;;;;13.38;6.72;;;;;;;;;;5035104;28;20030;-75
2022/08/17 09:53:11;;;;;;;10.43;6.82;;;;;;;;;;5037204;28;20025;-76
2022/08/17 09:55:56;;;;;;;16.02;6.68;;;;;;;;;;5032914;28;20032;-76
2022/08/17 09:58:28;;;;;;;15.05;6.72;;;;;;;;;;5034178;28;20067;-76
2022/08/17 10:01:01;;;;;;;13.00;5.97;;;;;;;;;;5035028;28;20053;-76
2022/08/17 10:03:27;;;;;;;13.65;6.47;;;;;;;;;;5037082;28;20128;-76
2022/08/17 10:06:06;;;;;;;14.55;6.82;;;;;;;;;;5038740;28;20064;-74
2022/08/17 10:08:56;;;;;;;13.57;6.72;;;;;;;;;;5037644;28;20021;-75
2022/08/17 10:11:22;;;;;;;9.85;6.53;;;;;;;;;;5018634;28;20453;-76
2022/08/17 10:13:59;;;;;;;11.15;6.00;;;;;;;;;;5034454;28;20029;-76
2022/08/17 10:16:36;;;;;;;9.98;5.72;;;;;;;;;;5037064;28;20437;-76
2022/08/17 10:19:05;;;;;;;12.13;6.13;;;;;;;;;;5039580;28;20022;-76
2022/08/17 10:27:11;;;;;;;14.45;6.60;;;;;;;;;;5039909;28;20056;-76
2022/08/17 10:29:49;;;;;;;16.40;5.97;;;;;;;;;;5035685;28;20089;-75
2022/08/17 10:32:38;;;;;;;10.02;6.30;;;;;;;;;;5035934;28;20052;-76
2022/08/17 10:35:06;;;;;;;11.20;5.88;;;;;;;;;;5033509;28;20025;-78
2022/08/17 10:37:32;;;;;;;11.32;5.50;;;;;;;;;;5056780;22;20045;-74
2022/08/17 10:40:17;;;;;;;12.60;6.10;;;;;;;;;;5034578;28;20104;-75
2022/08/17 10:42:51;;;;;;;7.40;5.30;;;;;;;;;;5033880;28;20025;-75
2022/08/17 10:45:17;;;;;;;;;;;;;;;;;;5037236;28;20017;-73
2022/08/17 10:48:02;;;;;;;9.52;6.10;;;;;;;;;;5032714;28;20468;-73
2022/08/17 10:50:48;;;;;;;17.23;5.78;;;;;;;;;;5032650;28;20049;-73
2022/08/17 10:53:32;;;;;;;12.90;5.80;;;;;;;;;;5025284;28;20034;-75
2022/08/17 10:56:14;;;;;;;8.90;5.72;;;;;;;;;;5042965;28;20429;-75
2022/08/17 10:58:48;;;;;;;8.00;5.35;;;;;;;;;;5032801;28;20032;-74
2022/08/17 11:01:14;;;;;;;11.00;5.90;;;;;;;;;;5029203;28;20021;-73
2022/08/17 11:03:54;;;;;;;9.77;5.50;;;;;;;;;;5035390;28;20032;-74
2022/08/17 11:06:24;;;;;;;8.32;5.60;;;;;;;;;;5023524;28;20627;-73
2022/08/17 11:08:59;;;;;;;16.98;9.32;;;;;;;;;;5048164;28;20017;-73
2022/08/17 11:11:34;;;;;;;11.65;6.18;;;;;;;;;;5030750;28;20029;-75
2022/08/17 11:14:15;;;;;;;9.57;5.57;;;;;;;;;;5046798;28;20028;-76
2022/08/17 11:17:00;;;;;;;12.63;5.93;;;;;;;;;;5035504;28;20466;-75
2022/08/17 11:19:55;;;;;;;10.02;5.65;;;;;;;;;;5031542;28;20087;-74
2022/08/17 11:22:53;;;;;;;7.43;5.70;;;;;;;;;;5015006;28;20045;-74
2022/08/17 11:25:21;;;;;;;7.95;5.65;;;;;;;;;;4978585;28;20030;-73
2022/08/17 11:27:52;;;;;;;11.65;5.40;;;;;;;;;;5041882;28;20024;-72
2022/08/17 11:30:47;;;;;;;20.30;7.72;;;;;;;;;;5037446;28;20020;-73
2022/08/17 11:33:28;;;;;;;16.20;6.50;;;;;;;;;;5024131;28;20103;-72
2022/08/17 11:35:59;;;;;;;12.35;7.57;;;;;;;;;;5037974;28;20025;-74
2022/08/17 11:38:32;;;;;;;13.38;9.00;;;;;;;;;;5035795;28;20061;-74
2022/08/17 11:41:13;;;;;;;9.55;6.65;;;;;;;;;;5037560;28;20029;-74
2022/08/17 11:44:14;;;;;;;13.60;5.20;;;;;;;;;;5040742;28;20013;-73
2022/08/17 11:52:42;;;;;;;22.45;5.60;;;;;;;;;;5046034;28;20060;-73
2022/08/17 11:55:11;;;;;;;13.05;5.03;;;;;;;;;;5017148;28;20025;-73
2022/08/17 11:57:40;;;;;;;11.75;6.85;;;;;;;;;;5035370;28;20100;-74
2022/08/17 12:00:09;;;;;;;11.90;5.50;;;;;;;;;;5035361;28;20063;-72
2022/08/17 12:02:42;;;;;;;11.60;4.93;;;;;;;;;;5036501;28;20069;-74
2022/08/17 12:05:11;;;;;;;10.73;5.50;;;;;;;;;;5035951;28;20034;-74
2022/08/17 12:07:41;;;;;;;7.03;5.22;;;;;;;;;;5039181;28;20055;-75
2022/08/17 12:10:09;;;;;;;13.45;6.43;;;;;;;;;;5044985;28;20068;-72
2022/08/17 12:12:42;;;;;;;8.20;5.30;;;;;;;;;;5045055;28;20025;-77
2022/08/17 12:15:16;;;;;;;12.55;5.60;;;;;;;;;;5037605;28;20029;-74
2022/08/17 12:17:49;;;;;;;10.98;5.28;;;;;;;;;;5035557;28;20096;-73
2022/08/17 12:20:26;;;;;;;17.75;9.15;;;;;;;;;;5035953;28;20080;-72
2022/08/17 12:23:22;;;;;;;11.05;7.80;;;;;;;;;;5035704;28;20359;-74
2022/08/17 12:25:51;;;;;;;8.30;5.45;;;;;;;;;;5002908;28;20584;-75
2022/08/17 12:28:31;;;;;;;11.38;5.13;;;;;;;;;;5033835;28;20022;-73
2022/08/17 12:30:59;;;;;;;14.77;5.45;;;;;;;;;;5034838;28;20084;-75
2022/08/17 12:33:27;;;;;;;15.52;5.55;;;;;;;;;;5035396;28;20060;-75
2022/08/17 12:35:57;;;;;;;13.30;5.28;;;;;;;;;;5034385;28;20017;-73
2022/08/17 12:38:23;;;;;;;12.55;5.60;;;;;;;;;;5018947;28;20068;-74
2022/08/17 12:40:54;;;;;;;16.45;5.35;;;;;;;;;;5034433;28;20037;-75
2022/08/17 12:43:21;;;;;;;10.00;5.88;;;;;;;;;;5035887;28;20029;-75
2022/08/17 12:45:55;;;;;;;12.55;5.65;;;;;;;;;;5037593;28;20030;-73
2022/08/17 12:48:23;;;;;;;13.15;5.80;;;;;;;;;;5034394;28;20029;-74
2022/08/17 12:50:50;;;;;;;10.30;5.47;;;;;;;;;;5033888;28;20025;-73
2022/08/17 12:53:20;;;;;;;11.88;6.43;;;;;;;;;;5034399;28;20513;-73
2022/08/17 12:55:47;;;;;;;13.50;5.45;;;;;;;;;;5033684;28;20075;-73
2022/08/17 12:58:19;;;;;;;13.60;5.88;;;;;;;;;;5016675;28;20030;-75
2022/08/17 13:00:48;;;;;;;8.30;5.50;;;;;;;;;;5034476;28;20417;-75
2022/08/17 13:03:15;;;;;;;16.48;6.38;;;;;;;;;;5036292;28;20025;-75
2022/08/17 13:05:42;;;;;;;7.13;5.60;;;;;;;;;;5035417;28;20371;-75
2022/08/17 13:08:28;;;;;;;8.15;5.97;;;;;;;;;;5034986;28;20346;-74
2022/08/17 13:11:21;;;;;;;11.95;5.57;;;;;;;;;;5032986;28;20105;-73
2022/08/17 13:13:50;;;;;;;13.55;6.03;;;;;;;;;;5030736;28;20572;-74
2022/08/17 13:16:17;;;;;;;9.82;6.07;;;;;;;;;;5033265;28;20029;-75
2022/08/17 13:18:45;;;;;;;12.13;5.28;;;;;;;;;;5033407;28;20098;-74
2022/08/17 13:21:25;;;;;;;13.73;5.45;;;;;;;;;;5034164;28;20025;-74
2022/08/17 13:23:55;;;;;;;8.77;5.35;;;;;;;;;;5043117;28;20037;-73
2022/08/17 13:26:26;;;;;;;9.52;5.03;;;;;;;;;;5046064;28;20028;-73
2022/08/17 13:28:53;;;;;;;8.38;5.55;;;;;;;;;;5046877;28;20022;-74
2022/08/17 13:31:20;;;;;;;7.90;4.80;;;;;;;;;;5028190;28;20079;-73
2022/08/17 13:33:46;;;;;;;10.00;5.60;;;;;;;;;;5041478;28;20036;-73
2022/08/17 13:36:12;;;;;;;11.57;5.68;;;;;;;;;;5032609;28;20402;-74
2022/08/17 13:38:50;;;;;;;8.23;5.00;;;;;;;;;;5035127;28;20033;-73
2022/08/17 13:41:33;;;;;;;9.48;4.95;;;;;;;;;;5033918;28;20029;-74
2022/08/17 13:44:00;;;;;;;14.52;5.20;;;;;;;;;;5032868;28;20053;-74
2022/08/17 13:46:30;;;;;;;13.98;5.45;;;;;;;;;;5014524;28;20025;-75
2022/08/17 13:49:10;;;;;;;11.20;5.82;;;;;;;;;;5032728;28;20026;-73
2022/08/17 13:51:43;;;;;;;8.15;5.05;;;;;;;;;;5014649;28;20025;-75
2022/08/17 13:54:29;;;;;;;9.40;5.50;;;;;;;;;;5035080;28;20508;-74
2022/08/17 13:56:56;;;;;;;14.13;5.57;;;;;;;;;;5032826;28;20037;-74
2022/08/17 13:59:31;;;;;;;8.30;4.72;;;;;;;;;;5032687;28;20429;-74
2022/08/17 14:01:57;;;;;;;8.27;5.93;;;;;;;;;;5032059;28;20049;-73
2022/08/17 14:04:32;;;;;;;8.05;5.70;;;;;;;;;;5032973;28;20446;-73
2022/08/17 14:07:01;;;;;;;12.73;5.57;;;;;;;;;;5033252;28;20056;-73
2022/08/17 14:09:28;;;;;;;12.00;6.15;;;;;;;;;;5034032;28;20030;-75
2022/08/17 14:11:56;;;;;;;18.17;5.15;;;;;;;;;;5033666;28;20098;-74
2022/08/17 14:14:22;;;;;;;9.15;5.93;;;;;;;;;;5033648;28;20041;-74
2022/08/17 14:16:48;;;;;;;13.05;5.57;;;;;;;;;;5033078;28;20029;-73
2022/08/17 14:19:15;;;;;;;11.82;5.82;;;;;;;;;;5034446;28;20052;-73
2022/08/17 14:21:42;;;;;;;8.15;5.25;;;;;;;;;;5035334;28;20132;-73
2022/08/17 14:24:09;;;;;;;9.02;5.65;;;;;;;;;;5032687;28;20528;-74
2022/08/17 14:26:35;;;;;;;11.25;6.22;;;;;;;;;;5033009;28;20029;-76
2022/08/17 14:29:01;;;;;;;10.15;5.50;;;;;;;;;;5033643;28;20548;-74
2022/08/17 14:31:27;;;;;;;8.30;5.40;;;;;;;;;;5032901;28;20029;-74
2022/08/17 14:33:54;;;;;;;13.27;6.15;;;;;;;;;;5032671;28;20359;-72
2022/08/17 14:36:20;;;;;;;16.27;6.03;;;;;;;;;;5033161;28;20089;-74
2022/08/17 14:38:46;;;;;;;12.35;5.82;;;;;;;;;;5033829;28;20482;-76
2022/08/17 14:41:14;;;;;;;15.57;5.38;;;;;;;;;;5033809;28;20055;-73
2022/08/17 14:43:40;;;;;;;8.52;5.78;;;;;;;;;;5034131;28;20024;-76
2022/08/17 14:46:06;;;;;;;14.23;6.18;;;;;;;;;;5041275;28;20021;-73
2022/08/17 14:48:34;;;;;;;11.88;6.05;;;;;;;;;;5039902;28;20026;-74
2022/08/17 14:51:00;;;;;;;15.13;6.15;;;;;;;;;;5036390;28;20025;-72
2022/08/17 14:53:26;;;;;;;15.15;6.53;;;;;;;;;;5016916;28;20031;-73
2022/08/17 14:55:52;;;;;;;11.90;6.22;;;;;;;;;;5039156;28;20028;-73
2022/08/17 14:58:18;;;;;;;14.50;7.32;;;;;;;;;;5036321;28;20478;-72
2022/08/17 15:00:44;;;;;;;7.32;5.47;;;;;;;;;;5033460;28;20033;-71
2022/08/17 15:03:11;;;;;;;9.52;5.93;;;;;;;;;;5031341;28;20072;-74
2022/08/17 15:05:37;;;;;;;13.02;5.82;;;;;;;;;;5033640;28;20029;-73
2022/08/17 15:08:04;;;;;;;23.85;9.65;;;;;;;;;;5033932;28;20049;-74
2022/08/17 15:10:31;;;;;;;14.27;7.72;;;;;;;;;;5034390;28;20025;-73